sensor_id;sensor_type;location;lat;lon;timestamp;temperature;humidity
7494;DHT22;3788;49.902;8.590;2022-09-03T00:00:03;19.20;51.60
7494;DHT22;3788;49.902;8.590;2022-09-03T00:02:36;19.20;51.60
7494;DHT22;3788;49.902;8.590;2022-09-03T00:05:07;19.20;51.70
7494;DHT22;3788;49.902;8.590;2022-09-03T00:07:41;19.20;51.70
7494;DHT22;3788;49.902;8.590;2022-09-03T00:10:14;19.20;51.70
7494;DHT22;3788;49.902;8.590;2022-09-03T00:12:42;19.20;51.80
7494;DHT22;3788;49.902;8.590;2022-09-03T00:15:11;19.20;51.80
7494;DHT22;3788;49.902;8.590;2022-09-03T00:17:42;19.20;51.90
7494;DHT22;3788;49.902;8.590;2022-09-03T00:20:12;19.20;52.00
7494;DHT22;3788;49.902;8.590;2022-09-03T00:22:46;19.20;52.40
7494;DHT22;3788;49.902;8.590;2022-09-03T00:25:17;19.10;52.60
7494;DHT22;3788;49.902;8.590;2022-09-03T00:27:48;19.00;52.70
7494;DHT22;3788;49.902;8.590;2022-09-03T00:30:16;19.00;52.70
7494;DHT22;3788;49.902;8.590;2022-09-03T00:32:48;18.90;52.70
7494;DHT22;3788;49.902;8.590;2022-09-03T00:35:21;18.90;52.70
7494;DHT22;3788;49.902;8.590;2022-09-03T00:37:51;18.90;52.70
7494;DHT22;3788;49.902;8.590;2022-09-03T00:40:43;18.80;52.70
7494;DHT22;3788;49.902;8.590;2022-09-03T00:43:21;18.90;52.80
7494;DHT22;3788;49.902;8.590;2022-09-03T00:45:57;18.80;52.90
7494;DHT22;3788;49.902;8.590;2022-09-03T00:48:35;18.70;52.90
7494;DHT22;3788;49.902;8.590;2022-09-03T00:51:20;18.70;53.10
7494;DHT22;3788;49.902;8.590;2022-09-03T00:53:59;18.60;53.30
7494;DHT22;3788;49.902;8.590;2022-09-03T00:56:36;18.50;53.30
7494;DHT22;3788;49.902;8.590;2022-09-03T00:59:21;18.50;53.50
7494;DHT22;3788;49.902;8.590;2022-09-03T01:02:00;18.50;53.70
7494;DHT22;3788;49.902;8.590;2022-09-03T01:04:38;18.40;53.90
7494;DHT22;3788;49.902;8.590;2022-09-03T01:07:15;18.40;54.20
7494;DHT22;3788;49.902;8.590;2022-09-03T01:09:51;18.30;54.40
7494;DHT22;3788;49.902;8.590;2022-09-03T01:12:27;18.30;54.70
7494;DHT22;3788;49.902;8.590;2022-09-03T01:15:05;18.20;54.90
7494;DHT22;3788;49.902;8.590;2022-09-03T01:17:50;18.20;55.00
7494;DHT22;3788;49.902;8.590;2022-09-03T01:20:33;18.10;55.00
7494;DHT22;3788;49.902;8.590;2022-09-03T01:26:09;18.10;55.00
7494;DHT22;3788;49.902;8.590;2022-09-03T01:28:52;18.10;55.10
7494;DHT22;3788;49.902;8.590;2022-09-03T01:31:28;18.10;55.10
7494;DHT22;3788;49.902;8.590;2022-09-03T01:34:03;18.10;55.10
7494;DHT22;3788;49.902;8.590;2022-09-03T01:36:40;18.10;55.10
7494;DHT22;3788;49.902;8.590;2022-09-03T01:39:14;18.10;55.10
7494;DHT22;3788;49.902;8.590;2022-09-03T01:41:47;18.10;55.10
7494;DHT22;3788;49.902;8.590;2022-09-03T01:47:41;18.20;55.10
7494;DHT22;3788;49.902;8.590;2022-09-03T01:50:24;18.20;55.10
7494;DHT22;3788;49.902;8.590;2022-09-03T01:52:55;18.20;55.00
7494;DHT22;3788;49.902;8.590;2022-09-03T01:55:30;18.20;55.00
7494;DHT22;3788;49.902;8.590;2022-09-03T01:58:01;18.20;55.10
7494;DHT22;3788;49.902;8.590;2022-09-03T02:00:35;18.20;55.00
7494;DHT22;3788;49.902;8.590;2022-09-03T02:03:06;18.30;55.10
7494;DHT22;3788;49.902;8.590;2022-09-03T02:05:33;18.30;55.10
7494;DHT22;3788;49.902;8.590;2022-09-03T02:08:04;18.30;55.20
7494;DHT22;3788;49.902;8.590;2022-09-03T02:10:37;18.30;55.20
7494;DHT22;3788;49.902;8.590;2022-09-03T02:13:06;18.30;55.30
7494;DHT22;3788;49.902;8.590;2022-09-03T02:15:36;18.30;55.30
7494;DHT22;3788;49.902;8.590;2022-09-03T02:18:06;18.30;55.20
7494;DHT22;3788;49.902;8.590;2022-09-03T02:20:36;18.30;55.20
7494;DHT22;3788;49.902;8.590;2022-09-03T02:23:03;18.40;55.30
7494;DHT22;3788;49.902;8.590;2022-09-03T02:25:34;18.40;55.20
7494;DHT22;3788;49.902;8.590;2022-09-03T02:28:02;18.50;55.30
7494;DHT22;3788;49.902;8.590;2022-09-03T02:30:30;18.50;55.30
7494;DHT22;3788;49.902;8.590;2022-09-03T02:32:58;18.50;55.20
7494;DHT22;3788;49.902;8.590;2022-09-03T02:35:24;18.60;55.30
7494;DHT22;3788;49.902;8.590;2022-09-03T02:37:51;18.60;55.20
7494;DHT22;3788;49.902;8.590;2022-09-03T02:40:18;18.60;55.20
7494;DHT22;3788;49.902;8.590;2022-09-03T02:42:46;18.60;55.20
7494;DHT22;3788;49.902;8.590;2022-09-03T02:45:19;18.70;55.30
7494;DHT22;3788;49.902;8.590;2022-09-03T02:47:51;18.70;55.30
7494;DHT22;3788;49.902;8.590;2022-09-03T02:50:21;18.70;55.40
7494;DHT22;3788;49.902;8.590;2022-09-03T02:52:47;18.70;55.40
7494;DHT22;3788;49.902;8.590;2022-09-03T02:55:14;18.70;55.40
7494;DHT22;3788;49.902;8.590;2022-09-03T02:57:41;18.70;55.50
7494;DHT22;3788;49.902;8.590;2022-09-03T03:00:09;18.70;55.40
7494;DHT22;3788;49.902;8.590;2022-09-03T03:02:35;18.70;55.50
7494;DHT22;3788;49.902;8.590;2022-09-03T03:05:03;18.70;55.50
7494;DHT22;3788;49.902;8.590;2022-09-03T03:07:37;18.70;55.50
7494;DHT22;3788;49.902;8.590;2022-09-03T03:10:05;18.70;55.60
7494;DHT22;3788;49.902;8.590;2022-09-03T03:12:32;18.70;55.60
7494;DHT22;3788;49.902;8.590;2022-09-03T03:14:59;18.70;55.70
7494;DHT22;3788;49.902;8.590;2022-09-03T03:17:26;18.70;55.70
7494;DHT22;3788;49.902;8.590;2022-09-03T03:19:53;18.70;55.70
7494;DHT22;3788;49.902;8.590;2022-09-03T03:22:19;18.70;55.70
7494;DHT22;3788;49.902;8.590;2022-09-03T03:24:47;18.70;55.80
7494;DHT22;3788;49.902;8.590;2022-09-03T03:27:15;18.70;55.80
7494;DHT22;3788;49.902;8.590;2022-09-03T03:29:43;18.70;55.80
7494;DHT22;3788;49.902;8.590;2022-09-03T03:32:10;18.70;55.80
7494;DHT22;3788;49.902;8.590;2022-09-03T03:34:36;18.70;56.40
7494;DHT22;3788;49.902;8.590;2022-09-03T03:37:04;18.70;55.90
7494;DHT22;3788;49.902;8.590;2022-09-03T03:39:31;18.70;55.90
7494;DHT22;3788;49.902;8.590;2022-09-03T03:41:59;18.70;56.00
7494;DHT22;3788;49.902;8.590;2022-09-03T03:44:25;18.70;56.00
7494;DHT22;3788;49.902;8.590;2022-09-03T03:46:54;18.70;56.10
7494;DHT22;3788;49.902;8.590;2022-09-03T03:49:20;18.70;56.20
7494;DHT22;3788;49.902;8.590;2022-09-03T03:51:47;18.70;56.20
7494;DHT22;3788;49.902;8.590;2022-09-03T03:54:14;18.60;56.20
7494;DHT22;3788;49.902;8.590;2022-09-03T03:56:40;18.60;56.30
7494;DHT22;3788;49.902;8.590;2022-09-03T03:59:08;18.60;56.30
7494;DHT22;3788;49.902;8.590;2022-09-03T04:01:35;18.60;56.40
7494;DHT22;3788;49.902;8.590;2022-09-03T04:04:02;18.60;56.50
7494;DHT22;3788;49.902;8.590;2022-09-03T04:06:30;18.60;56.60
7494;DHT22;3788;49.902;8.590;2022-09-03T04:08:56;18.60;56.70
7494;DHT22;3788;49.902;8.590;2022-09-03T04:11:24;18.60;56.70
7494;DHT22;3788;49.902;8.590;2022-09-03T04:13:51;18.60;56.80
7494;DHT22;3788;49.902;8.590;2022-09-03T04:16:21;18.60;56.90
7494;DHT22;3788;49.902;8.590;2022-09-03T04:18:48;18.60;57.00
7494;DHT22;3788;49.902;8.590;2022-09-03T04:21:17;18.60;57.00
7494;DHT22;3788;49.902;8.590;2022-09-03T04:23:45;18.60;57.10
7494;DHT22;3788;49.902;8.590;2022-09-03T04:26:13;18.60;57.30
7494;DHT22;3788;49.902;8.590;2022-09-03T04:28:41;18.60;57.40
7494;DHT22;3788;49.902;8.590;2022-09-03T04:31:09;18.60;57.50
7494;DHT22;3788;49.902;8.590;2022-09-03T04:33:38;18.50;58.20
7494;DHT22;3788;49.902;8.590;2022-09-03T04:36:06;18.50;57.80
7494;DHT22;3788;49.902;8.590;2022-09-03T04:38:34;18.50;57.90
7494;DHT22;3788;49.902;8.590;2022-09-03T04:41:01;18.50;58.20
7494;DHT22;3788;49.902;8.590;2022-09-03T04:43:28;18.50;58.30
7494;DHT22;3788;49.902;8.590;2022-09-03T04:45:56;18.50;58.50
7494;DHT22;3788;49.902;8.590;2022-09-03T04:48:23;18.50;58.50
7494;DHT22;3788;49.902;8.590;2022-09-03T04:50:51;18.50;58.70
7494;DHT22;3788;49.902;8.590;2022-09-03T04:53:20;18.40;58.60
7494;DHT22;3788;49.902;8.590;2022-09-03T04:55:50;18.50;58.80
7494;DHT22;3788;49.902;8.590;2022-09-03T04:58:17;18.40;59.00
7494;DHT22;3788;49.902;8.590;2022-09-03T05:00:43;18.40;59.10
7494;DHT22;3788;49.902;8.590;2022-09-03T05:03:10;18.40;59.30
7494;DHT22;3788;49.902;8.590;2022-09-03T05:05:37;18.30;59.30
7494;DHT22;3788;49.902;8.590;2022-09-03T05:08:06;18.30;59.40
7494;DHT22;3788;49.902;8.590;2022-09-03T05:10:32;18.30;59.50
7494;DHT22;3788;49.902;8.590;2022-09-03T05:13:00;18.30;59.60
7494;DHT22;3788;49.902;8.590;2022-09-03T05:15:29;18.40;59.70
7494;DHT22;3788;49.902;8.590;2022-09-03T05:17:57;18.40;59.70
7494;DHT22;3788;49.902;8.590;2022-09-03T05:20:24;18.40;59.80
7494;DHT22;3788;49.902;8.590;2022-09-03T05:22:51;18.40;59.80
7494;DHT22;3788;49.902;8.590;2022-09-03T05:25:19;18.40;59.90
7494;DHT22;3788;49.902;8.590;2022-09-03T05:27:47;18.40;60.00
7494;DHT22;3788;49.902;8.590;2022-09-03T05:30:14;18.30;60.00
7494;DHT22;3788;49.902;8.590;2022-09-03T05:32:41;18.40;60.10
7494;DHT22;3788;49.902;8.590;2022-09-03T05:35:08;18.40;60.10
7494;DHT22;3788;49.902;8.590;2022-09-03T05:37:36;18.40;60.20
7494;DHT22;3788;49.902;8.590;2022-09-03T05:40:03;18.40;60.30
7494;DHT22;3788;49.902;8.590;2022-09-03T05:42:31;18.40;60.30
7494;DHT22;3788;49.902;8.590;2022-09-03T05:44:59;18.40;60.30
7494;DHT22;3788;49.902;8.590;2022-09-03T05:47:26;18.40;60.40
7494;DHT22;3788;49.902;8.590;2022-09-03T05:49:53;18.40;60.60
7494;DHT22;3788;49.902;8.590;2022-09-03T05:52:19;18.40;60.60
7494;DHT22;3788;49.902;8.590;2022-09-03T05:54:47;18.40;60.70
7494;DHT22;3788;49.902;8.590;2022-09-03T05:57:14;18.40;60.70
7494;DHT22;3788;49.902;8.590;2022-09-03T05:59:42;18.40;60.80
7494;DHT22;3788;49.902;8.590;2022-09-03T06:02:09;18.40;60.70
7494;DHT22;3788;49.902;8.590;2022-09-03T06:04:35;18.40;60.80
7494;DHT22;3788;49.902;8.590;2022-09-03T06:07:02;18.50;61.00
7494;DHT22;3788;49.902;8.590;2022-09-03T06:09:29;18.40;61.20
7494;DHT22;3788;49.902;8.590;2022-09-03T06:11:55;18.50;62.20
7494;DHT22;3788;49.902;8.590;2022-09-03T06:14:22;18.40;62.40
7494;DHT22;3788;49.902;8.590;2022-09-03T06:16:50;18.40;63.10
7494;DHT22;3788;49.902;8.590;2022-09-03T06:19:18;18.40;63.70
7494;DHT22;3788;49.902;8.590;2022-09-03T06:21:46;18.30;64.20
7494;DHT22;3788;49.902;8.590;2022-09-03T06:24:15;18.30;64.50
7494;DHT22;3788;49.902;8.590;2022-09-03T06:26:42;18.20;65.00
7494;DHT22;3788;49.902;8.590;2022-09-03T06:29:09;18.20;65.20
7494;DHT22;3788;49.902;8.590;2022-09-03T06:31:36;18.20;65.90
7494;DHT22;3788;49.902;8.590;2022-09-03T06:34:04;18.20;66.30
7494;DHT22;3788;49.902;8.590;2022-09-03T06:36:31;18.20;66.80
7494;DHT22;3788;49.902;8.590;2022-09-03T06:38:58;18.20;68.10
7494;DHT22;3788;49.902;8.590;2022-09-03T06:41:27;18.20;68.70
7494;DHT22;3788;49.902;8.590;2022-09-03T06:43:57;18.20;69.60
7494;DHT22;3788;49.902;8.590;2022-09-03T06:46:28;18.30;70.60
7494;DHT22;3788;49.902;8.590;2022-09-03T06:48:56;18.30;71.30
7494;DHT22;3788;49.902;8.590;2022-09-03T06:51:26;18.40;71.80
7494;DHT22;3788;49.902;8.590;2022-09-03T06:53:57;18.50;72.50
7494;DHT22;3788;49.902;8.590;2022-09-03T06:56:24;18.60;73.10
7494;DHT22;3788;49.902;8.590;2022-09-03T06:58:53;18.70;73.60
7494;DHT22;3788;49.902;8.590;2022-09-03T07:01:22;18.80;73.40
7494;DHT22;3788;49.902;8.590;2022-09-03T07:03:53;18.80;73.70
7494;DHT22;3788;49.902;8.590;2022-09-03T07:06:24;18.80;74.40
7494;DHT22;3788;49.902;8.590;2022-09-03T07:08:52;18.80;75.10
7494;DHT22;3788;49.902;8.590;2022-09-03T07:11:21;18.70;75.80
7494;DHT22;3788;49.902;8.590;2022-09-03T07:13:52;18.60;76.30
7494;DHT22;3788;49.902;8.590;2022-09-03T07:16:21;18.60;76.80
7494;DHT22;3788;49.902;8.590;2022-09-03T07:18:49;18.50;77.20
7494;DHT22;3788;49.902;8.590;2022-09-03T07:21:17;18.50;77.80
7494;DHT22;3788;49.902;8.590;2022-09-03T07:23:46;18.40;78.00
7494;DHT22;3788;49.902;8.590;2022-09-03T07:26:15;18.30;78.40
7494;DHT22;3788;49.902;8.590;2022-09-03T07:28:43;18.20;78.70
7494;DHT22;3788;49.902;8.590;2022-09-03T07:31:12;18.20;79.80
7494;DHT22;3788;49.902;8.590;2022-09-03T07:33:40;18.10;79.50
7494;DHT22;3788;49.902;8.590;2022-09-03T07:36:09;18.20;79.80
7494;DHT22;3788;49.902;8.590;2022-09-03T07:38:37;18.10;80.50
7494;DHT22;3788;49.902;8.590;2022-09-03T07:41:06;18.10;81.40
7494;DHT22;3788;49.902;8.590;2022-09-03T07:43:35;18.10;82.40
7494;DHT22;3788;49.902;8.590;2022-09-03T07:46:04;18.00;83.30
7494;DHT22;3788;49.902;8.590;2022-09-03T07:48:31;17.90;84.70
7494;DHT22;3788;49.902;8.590;2022-09-03T07:50:58;17.80;86.10
7494;DHT22;3788;49.902;8.590;2022-09-03T07:53:26;17.70;87.60
7494;DHT22;3788;49.902;8.590;2022-09-03T07:55:53;17.50;88.80
7494;DHT22;3788;49.902;8.590;2022-09-03T07:58:22;17.40;90.00
7494;DHT22;3788;49.902;8.590;2022-09-03T08:00:49;17.30;90.70
7494;DHT22;3788;49.902;8.590;2022-09-03T08:03:16;17.30;91.50
7494;DHT22;3788;49.902;8.590;2022-09-03T08:05:43;17.20;92.00
7494;DHT22;3788;49.902;8.590;2022-09-03T08:08:09;17.10;92.40
7494;DHT22;3788;49.902;8.590;2022-09-03T08:10:39;17.00;92.80
7494;DHT22;3788;49.902;8.590;2022-09-03T08:13:06;16.90;93.20
7494;DHT22;3788;49.902;8.590;2022-09-03T08:15:34;16.90;93.70
7494;DHT22;3788;49.902;8.590;2022-09-03T08:18:02;16.80;94.00
7494;DHT22;3788;49.902;8.590;2022-09-03T08:20:29;16.80;94.40
7494;DHT22;3788;49.902;8.590;2022-09-03T08:23:00;16.80;94.70
7494;DHT22;3788;49.902;8.590;2022-09-03T08:25:30;16.80;94.90
7494;DHT22;3788;49.902;8.590;2022-09-03T08:27:57;16.90;95.00
7494;DHT22;3788;49.902;8.590;2022-09-03T08:30:26;16.90;95.20
7494;DHT22;3788;49.902;8.590;2022-09-03T08:32:54;17.00;95.30
7494;DHT22;3788;49.902;8.590;2022-09-03T08:35:21;17.10;95.40
7494;DHT22;3788;49.902;8.590;2022-09-03T08:37:48;17.30;95.60
7494;DHT22;3788;49.902;8.590;2022-09-03T08:40:18;17.80;95.70
7494;DHT22;3788;49.902;8.590;2022-09-03T08:42:57;18.30;95.40
7494;DHT22;3788;49.902;8.590;2022-09-03T08:45:25;18.60;95.00
7494;DHT22;3788;49.902;8.590;2022-09-03T08:48:00;19.20;95.00
7494;DHT22;3788;49.902;8.590;2022-09-03T08:50:33;19.70;94.00
7494;DHT22;3788;49.902;8.590;2022-09-03T08:53:06;19.70;93.30
7494;DHT22;3788;49.902;8.590;2022-09-03T08:55:36;19.70;93.00
7494;DHT22;3788;49.902;8.590;2022-09-03T08:58:11;19.50;92.80
7494;DHT22;3788;49.902;8.590;2022-09-03T09:00:45;19.50;92.90
7494;DHT22;3788;49.902;8.590;2022-09-03T09:03:27;19.80;93.00
7494;DHT22;3788;49.902;8.590;2022-09-03T09:06:06;20.60;92.30
7494;DHT22;3788;49.902;8.590;2022-09-03T09:08:38;21.30;90.90
7494;DHT22;3788;49.902;8.590;2022-09-03T09:11:14;21.60;90.00
7494;DHT22;3788;49.902;8.590;2022-09-03T09:13:47;21.80;88.00
7494;DHT22;3788;49.902;8.590;2022-09-03T09:16:24;21.50;87.30
7494;DHT22;3788;49.902;8.590;2022-09-03T09:19:12;21.30;87.60
7494;DHT22;3788;49.902;8.590;2022-09-03T09:21:47;21.00;87.70
7494;DHT22;3788;49.902;8.590;2022-09-03T09:24:20;20.60;88.50
7494;DHT22;3788;49.902;8.590;2022-09-03T09:26:48;20.40;89.20
7494;DHT22;3788;49.902;8.590;2022-09-03T09:29:16;20.20;89.90
7494;DHT22;3788;49.902;8.590;2022-09-03T09:31:43;20.10;90.20
7494;DHT22;3788;49.902;8.590;2022-09-03T09:34:12;20.10;90.40
7494;DHT22;3788;49.902;8.590;2022-09-03T09:36:42;20.30;90.60
7494;DHT22;3788;49.902;8.590;2022-09-03T09:39:11;20.40;90.40
7494;DHT22;3788;49.902;8.590;2022-09-03T09:41:40;20.50;90.20
7494;DHT22;3788;49.902;8.590;2022-09-03T09:44:07;20.50;90.20
7494;DHT22;3788;49.902;8.590;2022-09-03T09:46:44;20.50;90.30
7494;DHT22;3788;49.902;8.590;2022-09-03T09:49:28;20.60;90.40
7494;DHT22;3788;49.902;8.590;2022-09-03T09:52:01;20.60;90.10
7494;DHT22;3788;49.902;8.590;2022-09-03T09:54:29;20.60;90.10
7494;DHT22;3788;49.902;8.590;2022-09-03T09:57:01;20.60;90.10
7494;DHT22;3788;49.902;8.590;2022-09-03T09:59:28;20.60;90.20
7494;DHT22;3788;49.902;8.590;2022-09-03T10:02:08;20.60;90.50
7494;DHT22;3788;49.902;8.590;2022-09-03T10:04:37;20.60;90.60
7494;DHT22;3788;49.902;8.590;2022-09-03T10:07:18;20.70;90.90
7494;DHT22;3788;49.902;8.590;2022-09-03T10:09:58;20.80;90.70
7494;DHT22;3788;49.902;8.590;2022-09-03T10:12:29;21.00;90.50
7494;DHT22;3788;49.902;8.590;2022-09-03T10:14:59;21.30;90.30
7494;DHT22;3788;49.902;8.590;2022-09-03T10:17:33;21.40;90.00
7494;DHT22;3788;49.902;8.590;2022-09-03T10:20:06;21.60;89.80
7494;DHT22;3788;49.902;8.590;2022-09-03T10:22:58;22.10;89.20
7494;DHT22;3788;49.902;8.590;2022-09-03T10:25:34;22.70;87.40
7494;DHT22;3788;49.902;8.590;2022-09-03T10:28:03;22.90;86.10
7494;DHT22;3788;49.902;8.590;2022-09-03T10:30:37;23.00;85.40
7494;DHT22;3788;49.902;8.590;2022-09-03T10:33:15;23.00;84.70
7494;DHT22;3788;49.902;8.590;2022-09-03T10:35:51;23.00;84.20
7494;DHT22;3788;49.902;8.590;2022-09-03T10:38:26;22.80;83.90
7494;DHT22;3788;49.902;8.590;2022-09-03T10:46:47;22.10;84.00
7494;DHT22;3788;49.902;8.590;2022-09-03T10:49:30;22.00;83.40
7494;DHT22;3788;49.902;8.590;2022-09-03T10:52:04;22.00;83.20
7494;DHT22;3788;49.902;8.590;2022-09-03T10:54:47;22.00;83.00
7494;DHT22;3788;49.902;8.590;2022-09-03T10:57:26;22.10;83.20
7494;DHT22;3788;49.902;8.590;2022-09-03T11:00:01;22.30;83.40
7494;DHT22;3788;49.902;8.590;2022-09-03T11:02:57;22.40;83.10
7494;DHT22;3788;49.902;8.590;2022-09-03T11:05:35;22.50;82.80
7494;DHT22;3788;49.902;8.590;2022-09-03T11:08:08;22.50;82.80
7494;DHT22;3788;49.902;8.590;2022-09-03T11:10:39;22.50;83.10
7494;DHT22;3788;49.902;8.590;2022-09-03T11:13:11;22.60;83.30
7494;DHT22;3788;49.902;8.590;2022-09-03T11:15:41;22.80;83.00
7494;DHT22;3788;49.902;8.590;2022-09-03T11:18:15;23.10;82.20
7494;DHT22;3788;49.902;8.590;2022-09-03T11:20:46;23.50;81.30
7494;DHT22;3788;49.902;8.590;2022-09-03T11:23:16;23.80;80.60
7494;DHT22;3788;49.902;8.590;2022-09-03T11:25:48;24.00;79.90
7494;DHT22;3788;49.902;8.590;2022-09-03T11:28:24;24.10;79.80
7494;DHT22;3788;49.902;8.590;2022-09-03T11:31:04;24.30;79.10
7494;DHT22;3788;49.902;8.590;2022-09-03T11:33:40;24.20;77.60
7494;DHT22;3788;49.902;8.590;2022-09-03T11:36:07;24.20;77.60
7494;DHT22;3788;49.902;8.590;2022-09-03T11:38:35;24.10;77.40
7494;DHT22;3788;49.902;8.590;2022-09-03T11:41:11;24.00;77.00
7494;DHT22;3788;49.902;8.590;2022-09-03T11:43:39;23.90;76.80
7494;DHT22;3788;49.902;8.590;2022-09-03T11:46:09;23.80;76.70
7494;DHT22;3788;49.902;8.590;2022-09-03T11:48:40;23.80;76.70
7494;DHT22;3788;49.902;8.590;2022-09-03T11:51:31;23.90;76.90
7494;DHT22;3788;49.902;8.590;2022-09-03T11:54:03;24.00;77.00
7494;DHT22;3788;49.902;8.590;2022-09-03T11:56:31;24.20;77.10
7494;DHT22;3788;49.902;8.590;2022-09-03T11:59:15;24.30;76.30
7494;DHT22;3788;49.902;8.590;2022-09-03T12:01:46;24.30;76.20
7494;DHT22;3788;49.902;8.590;2022-09-03T12:04:19;24.30;76.60
7494;DHT22;3788;49.902;8.590;2022-09-03T12:07:01;24.40;76.80
7494;DHT22;3788;49.902;8.590;2022-09-03T12:12:50;24.10;76.40
7494;DHT22;3788;49.902;8.590;2022-09-03T12:15:30;23.80;77.20
7494;DHT22;3788;49.902;8.590;2022-09-03T12:18:03;23.70;77.70
7494;DHT22;3788;49.902;8.590;2022-09-03T12:20:47;23.60;77.90
7494;DHT22;3788;49.902;8.590;2022-09-03T12:23:26;23.70;78.00
7494;DHT22;3788;49.902;8.590;2022-09-03T12:26:02;23.60;77.80
7494;DHT22;3788;49.902;8.590;2022-09-03T12:28:29;23.60;77.90
7494;DHT22;3788;49.902;8.590;2022-09-03T12:31:06;23.60;78.00
7494;DHT22;3788;49.902;8.590;2022-09-03T12:33:34;23.50;78.00
7494;DHT22;3788;49.902;8.590;2022-09-03T12:36:01;23.40;78.30
7494;DHT22;3788;49.902;8.590;2022-09-03T12:38:28;23.20;78.50
7494;DHT22;3788;49.902;8.590;2022-09-03T12:40:58;23.10;78.80
7494;DHT22;3788;49.902;8.590;2022-09-03T12:43:27;23.00;78.90
7494;DHT22;3788;49.902;8.590;2022-09-03T12:45:54;23.00;79.10
7494;DHT22;3788;49.902;8.590;2022-09-03T12:48:21;22.90;79.10
7494;DHT22;3788;49.902;8.590;2022-09-03T12:50:59;23.00;79.30
7494;DHT22;3788;49.902;8.590;2022-09-03T12:53:27;23.00;79.20
7494;DHT22;3788;49.902;8.590;2022-09-03T12:56:00;23.10;79.10
7494;DHT22;3788;49.902;8.590;2022-09-03T12:58:32;23.20;79.00
7494;DHT22;3788;49.902;8.590;2022-09-03T13:01:04;23.30;78.90
7494;DHT22;3788;49.902;8.590;2022-09-03T13:03:43;23.40;78.70
7494;DHT22;3788;49.902;8.590;2022-09-03T13:06:15;23.60;78.50
7494;DHT22;3788;49.902;8.590;2022-09-03T13:08:46;23.60;78.30
7494;DHT22;3788;49.902;8.590;2022-09-03T13:11:18;23.60;78.10
7494;DHT22;3788;49.902;8.590;2022-09-03T13:13:52;23.70;78.10
7494;DHT22;3788;49.902;8.590;2022-09-03T13:16:50;23.70;77.70
7494;DHT22;3788;49.902;8.590;2022-09-03T13:19:25;23.80;77.40
7494;DHT22;3788;49.902;8.590;2022-09-03T13:22:03;23.70;77.30
7494;DHT22;3788;49.902;8.590;2022-09-03T13:24:53;23.80;77.50
7494;DHT22;3788;49.902;8.590;2022-09-03T13:27:27;23.90;77.40
7494;DHT22;3788;49.902;8.590;2022-09-03T13:30:03;24.10;77.00
7494;DHT22;3788;49.902;8.590;2022-09-03T13:32:38;24.20;76.50
7494;DHT22;3788;49.902;8.590;2022-09-03T13:35:11;24.20;76.20
7494;DHT22;3788;49.902;8.590;2022-09-03T13:37:44;24.00;75.90
7494;DHT22;3788;49.902;8.590;2022-09-03T13:40:15;24.00;76.00
7494;DHT22;3788;49.902;8.590;2022-09-03T13:42:50;24.00;75.80
7494;DHT22;3788;49.902;8.590;2022-09-03T13:45:25;24.10;75.50
7494;DHT22;3788;49.902;8.590;2022-09-03T13:47:59;24.20;75.40
7494;DHT22;3788;49.902;8.590;2022-09-03T13:50:49;24.30;75.10
7494;DHT22;3788;49.902;8.590;2022-09-03T13:53:23;24.30;75.00
7494;DHT22;3788;49.902;8.590;2022-09-03T13:56:00;24.30;75.10
7494;DHT22;3788;49.902;8.590;2022-09-03T13:58:35;24.30;74.70
7494;DHT22;3788;49.902;8.590;2022-09-03T14:01:10;24.30;74.70
7494;DHT22;3788;49.902;8.590;2022-09-03T14:03:43;24.30;74.20
7494;DHT22;3788;49.902;8.590;2022-09-03T14:06:19;24.30;74.10
7494;DHT22;3788;49.902;8.590;2022-09-03T14:08:58;24.30;74.10
7494;DHT22;3788;49.902;8.590;2022-09-03T14:11:31;24.30;74.20
7494;DHT22;3788;49.902;8.590;2022-09-03T14:14:11;24.20;74.50
7494;DHT22;3788;49.902;8.590;2022-09-03T14:16:45;24.20;74.90
7494;DHT22;3788;49.902;8.590;2022-09-03T14:19:17;24.20;75.20
7494;DHT22;3788;49.902;8.590;2022-09-03T14:21:49;24.20;75.70
7494;DHT22;3788;49.902;8.590;2022-09-03T14:24:21;24.20;76.00
7494;DHT22;3788;49.902;8.590;2022-09-03T14:26:51;24.30;75.90
7494;DHT22;3788;49.902;8.590;2022-09-03T14:29:22;24.40;75.40
7494;DHT22;3788;49.902;8.590;2022-09-03T14:32:08;24.40;75.10
7494;DHT22;3788;49.902;8.590;2022-09-03T14:34:49;24.40;75.20
7494;DHT22;3788;49.902;8.590;2022-09-03T14:37:31;24.40;75.50
7494;DHT22;3788;49.902;8.590;2022-09-03T14:40:12;24.30;75.60
7494;DHT22;3788;49.902;8.590;2022-09-03T14:42:59;24.40;75.50
7494;DHT22;3788;49.902;8.590;2022-09-03T14:45:51;24.40;75.20
7494;DHT22;3788;49.902;8.590;2022-09-03T14:48:41;24.50;74.20
7494;DHT22;3788;49.902;8.590;2022-09-03T14:51:21;24.60;74.90
7494;DHT22;3788;49.902;8.590;2022-09-03T14:54:22;24.50;74.80
7494;DHT22;3788;49.902;8.590;2022-09-03T14:56:58;24.50;75.60
7494;DHT22;3788;49.902;8.590;2022-09-03T15:00:01;24.60;74.70
7494;DHT22;3788;49.902;8.590;2022-09-03T15:05:46;24.50;75.10
7494;DHT22;3788;49.902;8.590;2022-09-03T15:08:36;24.40;75.50
7494;DHT22;3788;49.902;8.590;2022-09-03T15:11:14;24.40;75.20
7494;DHT22;3788;49.902;8.590;2022-09-03T15:13:46;24.30;75.10
7494;DHT22;3788;49.902;8.590;2022-09-03T15:16:24;24.30;75.00
7494;DHT22;3788;49.902;8.590;2022-09-03T15:19:12;24.30;75.00
7494;DHT22;3788;49.902;8.590;2022-09-03T15:22:02;24.30;74.90
7494;DHT22;3788;49.902;8.590;2022-09-03T15:24:42;24.20;74.90
7494;DHT22;3788;49.902;8.590;2022-09-03T15:27:27;24.20;75.40
7494;DHT22;3788;49.902;8.590;2022-09-03T15:30:05;24.10;75.70
7494;DHT22;3788;49.902;8.590;2022-09-03T15:32:45;24.00;76.00
7494;DHT22;3788;49.902;8.590;2022-09-03T15:35:37;24.00;76.30
7494;DHT22;3788;49.902;8.590;2022-09-03T15:38:09;23.90;76.80
7494;DHT22;3788;49.902;8.590;2022-09-03T15:40:41;23.80;76.70
7494;DHT22;3788;49.902;8.590;2022-09-03T15:43:18;23.80;76.90
7494;DHT22;3788;49.902;8.590;2022-09-03T15:45:51;23.70;77.00
7494;DHT22;3788;49.902;8.590;2022-09-03T15:48:28;23.60;77.30
7494;DHT22;3788;49.902;8.590;2022-09-03T15:51:08;23.60;77.70
7494;DHT22;3788;49.902;8.590;2022-09-03T15:53:41;23.50;78.50
7494;DHT22;3788;49.902;8.590;2022-09-03T15:56:18;23.50;77.90
7494;DHT22;3788;49.902;8.590;2022-09-03T15:58:51;23.50;78.00
7494;DHT22;3788;49.902;8.590;2022-09-03T16:01:26;23.40;78.10
7494;DHT22;3788;49.902;8.590;2022-09-03T16:04:02;23.40;78.20
7494;DHT22;3788;49.902;8.590;2022-09-03T16:06:46;23.40;78.50
7494;DHT22;3788;49.902;8.590;2022-09-03T16:09:30;23.40;78.60
7494;DHT22;3788;49.902;8.590;2022-09-03T16:12:09;23.40;78.80
7494;DHT22;3788;49.902;8.590;2022-09-03T16:14:43;23.40;78.80
7494;DHT22;3788;49.902;8.590;2022-09-03T16:17:20;23.40;78.80
7494;DHT22;3788;49.902;8.590;2022-09-03T16:19:54;23.40;79.00
7494;DHT22;3788;49.902;8.590;2022-09-03T16:22:27;23.40;79.10
7494;DHT22;3788;49.902;8.590;2022-09-03T16:25:00;23.40;79.10
7494;DHT22;3788;49.902;8.590;2022-09-03T16:27:31;23.40;79.20
7494;DHT22;3788;49.902;8.590;2022-09-03T16:30:02;23.40;79.20
7494;DHT22;3788;49.902;8.590;2022-09-03T16:32:53;23.40;79.50
7494;DHT22;3788;49.902;8.590;2022-09-03T16:35:29;23.40;79.50
7494;DHT22;3788;49.902;8.590;2022-09-03T16:38:10;23.30;79.90
7494;DHT22;3788;49.902;8.590;2022-09-03T16:40:43;23.30;80.30
7494;DHT22;3788;49.902;8.590;2022-09-03T16:43:21;23.30;80.70
7494;DHT22;3788;49.902;8.590;2022-09-03T16:46:01;23.20;81.10
7494;DHT22;3788;49.902;8.590;2022-09-03T16:48:34;23.20;81.60
7494;DHT22;3788;49.902;8.590;2022-09-03T16:51:11;23.10;81.90
7494;DHT22;3788;49.902;8.590;2022-09-03T16:53:50;23.10;79.00